Aérodrome :
LOGIN :

S'inscrire | Disclaimer

   EN    FR    IT 

 










Légende :    VFR   VFR Marginal   IFR   IFR Intensif   IFR Très Intensif
Visi : 
Plafond : 
>= 8 km
>= 3000ft
5 à 8 km
1000 à 3000 ft
1500m à 5 km
500 à 1000 ft
800 à 1500m
200 à 500 ft
< 800m
< 200 ft
Symboles :   Orages  Brouillard  Fortes neiges  Fortes précipitations  Vent > 20 kt
SIGMETs :   Divers  Orages  Givrage  Turbulence  Onde Orograph.  Cendres Volcan.






- Altitude de l'aérodrome : 277 ft
- Code IATA : JER


EGJJ - Jersey

DERNIER METAR :
  • 291820Z 24015KT 9999 FEW003 SCT010 BKN025 07/06 Q1028

METARs EXPIRÉS :
  • 291750Z 26015KT 9999 FEW006 BKN025 08/06 Q1028
  • 291720Z 25012KT 9999 FEW007 BKN031 08/06 Q1028
  • 291650Z 25013KT 9999 FEW009 BKN035 08/06 Q1028
  • 291620Z 26014KT 9999 FEW012 BKN035 08/06 Q1028
  • 291550Z 26014KT 9999 FEW012 BKN035 08/06 Q1028

TAF TAF EGJJ
Valide du 29 à 18h jusqu'au 30 à 03h UTC


291658Z 2918/3003 26011KT 9999 SCT018
PROB30
TEMPO 2918/2921 BKN014
PROB40
TEMPO 2921/3003 7000 -RA BKN008
ATIS : +44 1534 498 073



MET'MAP, la Météo Aéronautique d'un coup d'oeil ! - Copyright ORBIFLY Décembre 2007 - Disclaimer

ORBIFLY MET'MAP TEAM :

Programmation & Développement : Alexandra Zaïnal
Sur une idée originale de : Baudouin d'Aumeries
Soutien technique & logistique : Manuel Goepfert
Assistance : Marc-Olivier Méhu




SOURCES & CREDITS :

   NOAA